Nearby METAR Reports

 

YMER - Merimbula Arpt, Australia
Distance from station: SE 12km
Updated: Sun, 18-Aug-2019 11:00pm AEST
Overcast
Overcast
 Wind from NW
Wind: NW 17 km/h
Temperature: 12°C
Dew Point: 10°C
Humidity: 88%
Barometer: 1005 hPa
Clouds: Overcast
Visibility: 10 km
Cloud details: Mostly cloudy 2012 m
Overcast 2347 m
2019/08/18 13:00 YMER 181300Z AUTO 31009KT 9999 // BKN066 OVC077 12/10 Q1005
YCOM - Cooma Snowy Mtns, Australia
Distance from station: NW 96km
Updated: Sun, 18-Aug-2019 11:00pm AEST
Partly cloudy
Partly cloudy
 Wind from NW
Wind: NW 15 km/h
Temperature: 3°C
Wind Chill: -1°C
Dew Point: 1°C
Humidity: 87%
Barometer: 1008 hPa
Clouds: Partly cloudy
Visibility: 10 km
Cloud details: Partly cloudy 3048 m
2019/08/18 13:00 YCOM 181300Z AUTO 32008KT 9999 // SCT100 03/01 Q1008
 
YSCB - Canberra (civ/Mi, Australia
Distance from station: NNW 182km
Updated: Sun, 18-Aug-2019 11:00pm AEST
Light rain, Mostly cloudy
Light rain, Mostly cloudy
 Wind from NW
Wind: NW 20 km/h
Temperature: 6°C
Wind Chill: 2°C
Dew Point: 3°C
Humidity: 81%
Barometer: 1011 hPa
Summary: Light rain
Clouds: Mostly cloudy
Visibility: 10 km
Cloud details: Partly cloudy 823 m
Partly cloudy 1006 m
Mostly cloudy 1341 m
2019/08/18 13:00 YSCB 181300Z AUTO 32011KT 9999 -RA SCT027 SCT033 BKN044 06/03 Q1011 RERA
YSNW - Nowra (aus-Navy), Australia
Distance from station: NNE 219km
Updated: Sun, 18-Aug-2019 11:30pm AEST
Partly cloudy
Partly cloudy
 Wind from W
Wind: W 46 km/h, Gust: 70 km/h
Temperature: 14°C
Dew Point: 5°C
Humidity: 55%
Barometer: 1009 hPa
Clouds: Partly cloudy
Visibility: 10 km
Cloud details: Partly cloudy 1341 m
2019/08/18 13:30 YSNW 181330Z AUTO 28025G38KT 9999 // SCT044 14/05 Q1009
 
YMAY - Albury Airport, Australia
Distance from station: WNW 271km
Updated: Sun, 18-Aug-2019 11:00pm AEST
Clear
Clear
 Wind from WNW
Wind: WNW 28 km/h
Temperature: 7°C
Wind Chill: 3°C
Dew Point: 5°C
Humidity: 87%
Barometer: 1012 hPa
Clouds: Clear
Visibility: 10 km
2019/08/18 13:00 YMAY 181300Z AUTO 29015KT 9999 // NCD 07/05 Q1012
YSWG - Wagga Wagga(Cv/M, Australia
Distance from station: NW 283km
Updated: Sun, 18-Aug-2019 11:00pm AEST
Partly cloudy
Partly cloudy
 Wind from W
Wind: W 15 km/h
Temperature: 7°C
Wind Chill: 4°C
Dew Point: 7°C
Humidity: 100%
Barometer: 1013 hPa
Clouds: Partly cloudy
Visibility: 10 km
Cloud details: Partly cloudy 1798 m
2019/08/18 13:00 YSWG 181300Z AUTO 26008KT 9999 // SCT059 07/07 Q1013
 
YWGT - Wangaratta Arp, Australia
Distance from station: W 317km
Updated: Sun, 18-Aug-2019 11:00pm AEST
Clear
Clear
 Wind from W
Wind: W 30 km/h
Temperature: 7°C
Wind Chill: 3°C
Dew Point: 4°C
Humidity: 81%
Barometer: 1011 hPa
Clouds: Clear
Visibility: 10 km
2019/08/18 13:00 YWGT 181300Z AUTO 28016KT 9999 // NCD 07/04 Q1011
YSSY - Sydney Intl Airp, Australia
Distance from station: NNE 343km
Updated: Sun, 18-Aug-2019 11:00pm AEST
Clear
Clear
 Wind from WNW
Wind: WNW 17 km/h
Temperature: 17°C
Dew Point: 11°C
Humidity: 68%
Barometer: 1009 hPa
Summary: Clear
Visibility: greater than 10 km
2019/08/18 13:00 YSSY 181300Z 29009KT CAVOK 17/11 Q1009 FM1400 27020G30KT CAVOK FM1300 MOD/SEV TURB BLW 5000FT